sensor_id;sensor_type;location;lat;lon;timestamp;P1;durP1;ratioP1;P2;durP2;ratioP2
66663;SDS011;59683;51.428;-1.994;2023-06-04T00:01:49;13.77;;;5.33;;
66663;SDS011;59683;51.428;-1.994;2023-06-04T00:04:14;10.83;;;4.43;;
66663;SDS011;59683;51.428;-1.994;2023-06-04T00:06:40;11.83;;;4.30;;
66663;SDS011;59683;51.428;-1.994;2023-06-04T00:09:05;16.00;;;6.17;;
66663;SDS011;59683;51.428;-1.994;2023-06-04T00:11:31;16.27;;;6.83;;
66663;SDS011;59683;51.428;-1.994;2023-06-04T05:59:59;17.25;;;5.88;;
66663;SDS011;59683;51.428;-1.994;2023-06-04T06:02:25;14.60;;;4.60;;
66663;SDS011;59683;51.428;-1.994;2023-06-04T06:04:50;12.80;;;4.60;;
66663;SDS011;59683;51.428;-1.994;2023-06-04T06:07:16;11.83;;;4.33;;
66663;SDS011;59683;51.428;-1.994;2023-06-04T06:09:41;9.53;;;4.10;;
66663;SDS011;59683;51.428;-1.994;2023-06-04T06:12:07;5.80;;;3.10;;
66663;SDS011;59683;51.428;-1.994;2023-06-04T06:14:32;11.13;;;4.00;;
66663;SDS011;59683;51.428;-1.994;2023-06-04T06:16:57;9.27;;;3.50;;
66663;SDS011;59683;51.428;-1.994;2023-06-04T06:19:23;8.20;;;3.27;;
66663;SDS011;59683;51.428;-1.994;2023-06-04T06:21:48;8.77;;;3.17;;
66663;SDS011;59683;51.428;-1.994;2023-06-04T06:24:14;10.33;;;3.43;;
66663;SDS011;59683;51.428;-1.994;2023-06-04T06:26:39;10.83;;;3.07;;
66663;SDS011;59683;51.428;-1.994;2023-06-04T06:29:05;8.40;;;2.77;;
66663;SDS011;59683;51.428;-1.994;2023-06-04T06:31:31;9.77;;;2.83;;
66663;SDS011;59683;51.428;-1.994;2023-06-04T06:33:56;10.53;;;2.50;;
66663;SDS011;59683;51.428;-1.994;2023-06-04T06:36:21;8.77;;;2.60;;
66663;SDS011;59683;51.428;-1.994;2023-06-04T06:38:47;8.10;;;3.37;;
66663;SDS011;59683;51.428;-1.994;2023-06-04T06:41:12;7.33;;;2.40;;
66663;SDS011;59683;51.428;-1.994;2023-06-04T06:43:38;7.93;;;2.23;;
66663;SDS011;59683;51.428;-1.994;2023-06-04T06:46:03;8.17;;;3.30;;
66663;SDS011;59683;51.428;-1.994;2023-06-04T06:48:29;8.27;;;2.90;;
66663;SDS011;59683;51.428;-1.994;2023-06-04T06:50:55;9.23;;;2.27;;
66663;SDS011;59683;51.428;-1.994;2023-06-04T06:53:20;5.30;;;2.20;;
66663;SDS011;59683;51.428;-1.994;2023-06-04T06:55:46;7.23;;;2.03;;
66663;SDS011;59683;51.428;-1.994;2023-06-04T06:58:11;8.43;;;2.60;;
66663;SDS011;59683;51.428;-1.994;2023-06-04T07:00:37;10.10;;;2.70;;
66663;SDS011;59683;51.428;-1.994;2023-06-04T07:03:02;8.33;;;2.70;;
66663;SDS011;59683;51.428;-1.994;2023-06-04T07:05:29;7.00;;;1.70;;
66663;SDS011;59683;51.428;-1.994;2023-06-04T07:07:54;9.23;;;2.10;;
66663;SDS011;59683;51.428;-1.994;2023-06-04T07:10:22;6.93;;;2.40;;
66663;SDS011;59683;51.428;-1.994;2023-06-04T07:12:47;8.83;;;1.80;;
66663;SDS011;59683;51.428;-1.994;2023-06-04T07:15:12;6.50;;;1.83;;
66663;SDS011;59683;51.428;-1.994;2023-06-04T07:17:38;6.57;;;2.40;;
66663;SDS011;59683;51.428;-1.994;2023-06-04T07:20:03;6.90;;;1.47;;
66663;SDS011;59683;51.428;-1.994;2023-06-04T07:22:33;5.63;;;1.70;;
66663;SDS011;59683;51.428;-1.994;2023-06-04T07:24:59;8.03;;;1.63;;
66663;SDS011;59683;51.428;-1.994;2023-06-04T07:27:25;9.67;;;1.83;;
66663;SDS011;59683;51.428;-1.994;2023-06-04T07:29:51;4.97;;;1.50;;
66663;SDS011;59683;51.428;-1.994;2023-06-04T07:32:17;7.57;;;2.03;;
66663;SDS011;59683;51.428;-1.994;2023-06-04T07:34:42;6.40;;;1.60;;
66663;SDS011;59683;51.428;-1.994;2023-06-04T07:37:07;9.40;;;1.87;;
66663;SDS011;59683;51.428;-1.994;2023-06-04T07:39:34;7.33;;;1.70;;
66663;SDS011;59683;51.428;-1.994;2023-06-04T07:42:00;5.20;;;1.70;;
66663;SDS011;59683;51.428;-1.994;2023-06-04T07:44:25;6.10;;;1.57;;
66663;SDS011;59683;51.428;-1.994;2023-06-04T07:46:50;5.17;;;1.37;;
66663;SDS011;59683;51.428;-1.994;2023-06-04T07:49:16;6.20;;;1.60;;
66663;SDS011;59683;51.428;-1.994;2023-06-04T07:51:41;6.53;;;1.37;;
66663;SDS011;59683;51.428;-1.994;2023-06-04T07:54:07;5.27;;;1.27;;
66663;SDS011;59683;51.428;-1.994;2023-06-04T07:56:32;3.27;;;1.00;;
66663;SDS011;59683;51.428;-1.994;2023-06-04T07:58:57;8.87;;;1.77;;
66663;SDS011;59683;51.428;-1.994;2023-06-04T08:01:23;6.83;;;1.47;;
66663;SDS011;59683;51.428;-1.994;2023-06-04T08:03:49;7.50;;;2.37;;
66663;SDS011;59683;51.428;-1.994;2023-06-04T08:06:14;6.23;;;1.50;;
66663;SDS011;59683;51.428;-1.994;2023-06-04T08:08:43;6.10;;;1.50;;
66663;SDS011;59683;51.428;-1.994;2023-06-04T08:11:19;9.43;;;1.40;;
66663;SDS011;59683;51.428;-1.994;2023-06-04T08:13:47;7.13;;;1.30;;
66663;SDS011;59683;51.428;-1.994;2023-06-04T08:16:13;6.07;;;1.40;;
66663;SDS011;59683;51.428;-1.994;2023-06-04T08:18:39;7.22;;;1.58;;
66663;SDS011;59683;51.428;-1.994;2023-06-04T08:21:05;6.78;;;1.30;;
66663;SDS011;59683;51.428;-1.994;2023-06-04T08:23:33;5.80;;;1.30;;
66663;SDS011;59683;51.428;-1.994;2023-06-04T08:25:59;7.40;;;1.58;;
66663;SDS011;59683;51.428;-1.994;2023-06-04T08:28:24;4.53;;;1.10;;
66663;SDS011;59683;51.428;-1.994;2023-06-04T08:30:50;5.53;;;1.40;;
66663;SDS011;59683;51.428;-1.994;2023-06-04T08:33:15;3.63;;;0.95;;
66663;SDS011;59683;51.428;-1.994;2023-06-04T08:35:41;8.02;;;1.23;;
66663;SDS011;59683;51.428;-1.994;2023-06-04T08:38:06;3.42;;;1.13;;
66663;SDS011;59683;51.428;-1.994;2023-06-04T08:40:32;5.22;;;1.27;;
66663;SDS011;59683;51.428;-1.994;2023-06-04T08:42:59;4.80;;;1.17;;
66663;SDS011;59683;51.428;-1.994;2023-06-04T08:45:26;4.68;;;1.02;;
66663;SDS011;59683;51.428;-1.994;2023-06-04T08:47:52;6.00;;;1.30;;
66663;SDS011;59683;51.428;-1.994;2023-06-04T08:50:19;3.25;;;1.00;;
66663;SDS011;59683;51.428;-1.994;2023-06-04T08:52:46;6.22;;;1.10;;
66663;SDS011;59683;51.428;-1.994;2023-06-04T08:55:13;3.75;;;0.93;;
66663;SDS011;59683;51.428;-1.994;2023-06-04T08:57:39;5.53;;;1.48;;
66663;SDS011;59683;51.428;-1.994;2023-06-04T09:00:05;2.60;;;0.80;;
66663;SDS011;59683;51.428;-1.994;2023-06-04T09:02:33;4.57;;;1.33;;
66663;SDS011;59683;51.428;-1.994;2023-06-04T09:05:01;3.07;;;1.07;;
66663;SDS011;59683;51.428;-1.994;2023-06-04T09:07:28;3.50;;;0.88;;
66663;SDS011;59683;51.428;-1.994;2023-06-04T09:09:56;4.18;;;0.93;;
66663;SDS011;59683;51.428;-1.994;2023-06-04T09:12:23;2.88;;;0.90;;
66663;SDS011;59683;51.428;-1.994;2023-06-04T09:14:50;4.90;;;1.17;;
66663;SDS011;59683;51.428;-1.994;2023-06-04T09:17:20;2.63;;;0.63;;
66663;SDS011;59683;51.428;-1.994;2023-06-04T09:19:49;6.75;;;1.10;;
66663;SDS011;59683;51.428;-1.994;2023-06-04T09:22:15;1.85;;;0.85;;
66663;SDS011;59683;51.428;-1.994;2023-06-04T09:24:42;2.13;;;0.60;;
66663;SDS011;59683;51.428;-1.994;2023-06-04T09:29:51;3.95;;;1.13;;
66663;SDS011;59683;51.428;-1.994;2023-06-04T09:32:35;3.45;;;1.17;;
66663;SDS011;59683;51.428;-1.994;2023-06-04T09:35:34;5.85;;;0.82;;
66663;SDS011;59683;51.428;-1.994;2023-06-04T09:37:55;6.65;;;1.05;;
66663;SDS011;59683;51.428;-1.994;2023-06-04T09:40:22;5.28;;;0.90;;
66663;SDS011;59683;51.428;-1.994;2023-06-04T09:42:48;3.17;;;0.73;;
66663;SDS011;59683;51.428;-1.994;2023-06-04T09:47:54;5.85;;;0.90;;
66663;SDS011;59683;51.428;-1.994;2023-06-04T09:50:24;8.65;;;1.65;;
66663;SDS011;59683;51.428;-1.994;2023-06-04T09:52:51;3.40;;;0.90;;
66663;SDS011;59683;51.428;-1.994;2023-06-04T09:55:17;2.17;;;0.73;;
66663;SDS011;59683;51.428;-1.994;2023-06-04T09:57:47;3.55;;;0.80;;
66663;SDS011;59683;51.428;-1.994;2023-06-04T10:00:16;6.10;;;1.00;;
66663;SDS011;59683;51.428;-1.994;2023-06-04T10:02:43;2.90;;;0.63;;
66663;SDS011;59683;51.428;-1.994;2023-06-04T10:05:09;4.50;;;0.88;;
66663;SDS011;59683;51.428;-1.994;2023-06-04T10:07:38;3.40;;;0.90;;
66663;SDS011;59683;51.428;-1.994;2023-06-04T10:10:06;4.25;;;0.93;;
66663;SDS011;59683;51.428;-1.994;2023-06-04T10:12:34;5.38;;;0.80;;
66663;SDS011;59683;51.428;-1.994;2023-06-04T10:15:03;4.03;;;0.80;;
66663;SDS011;59683;51.428;-1.994;2023-06-04T10:17:32;4.78;;;1.00;;
66663;SDS011;59683;51.428;-1.994;2023-06-04T10:19:59;2.58;;;0.65;;
66663;SDS011;59683;51.428;-1.994;2023-06-04T10:22:26;4.63;;;1.20;;
66663;SDS011;59683;51.428;-1.994;2023-06-04T10:24:54;4.10;;;1.42;;
66663;SDS011;59683;51.428;-1.994;2023-06-04T10:27:19;3.40;;;0.98;;
66663;SDS011;59683;51.428;-1.994;2023-06-04T10:29:47;6.65;;;1.20;;
66663;SDS011;59683;51.428;-1.994;2023-06-04T10:32:14;3.78;;;0.75;;
66663;SDS011;59683;51.428;-1.994;2023-06-04T10:34:40;2.90;;;1.10;;
66663;SDS011;59683;51.428;-1.994;2023-06-04T10:37:05;2.80;;;0.98;;
66663;SDS011;59683;51.428;-1.994;2023-06-04T10:39:31;3.70;;;0.73;;
66663;SDS011;59683;51.428;-1.994;2023-06-04T10:41:58;3.38;;;0.90;;
66663;SDS011;59683;51.428;-1.994;2023-06-04T10:44:27;2.00;;;0.80;;
66663;SDS011;59683;51.428;-1.994;2023-06-04T10:46:56;3.13;;;0.70;;
66663;SDS011;59683;51.428;-1.994;2023-06-04T10:49:28;1.92;;;0.80;;
66663;SDS011;59683;51.428;-1.994;2023-06-04T10:51:55;2.95;;;0.70;;
66663;SDS011;59683;51.428;-1.994;2023-06-04T10:54:24;5.13;;;0.80;;
66663;SDS011;59683;51.428;-1.994;2023-06-04T10:56:51;2.42;;;0.93;;
66663;SDS011;59683;51.428;-1.994;2023-06-04T10:59:18;4.38;;;0.90;;
66663;SDS011;59683;51.428;-1.994;2023-06-04T11:01:44;6.53;;;1.10;;
66663;SDS011;59683;51.428;-1.994;2023-06-04T11:04:23;4.80;;;1.17;;
66663;SDS011;59683;51.428;-1.994;2023-06-04T11:09:48;4.70;;;0.90;;
66663;SDS011;59683;51.428;-1.994;2023-06-04T11:14:40;3.72;;;0.80;;
66663;SDS011;59683;51.428;-1.994;2023-06-04T11:17:12;4.18;;;0.82;;
66663;SDS011;59683;51.428;-1.994;2023-06-04T11:19:38;2.75;;;0.98;;
66663;SDS011;59683;51.428;-1.994;2023-06-04T11:22:04;3.38;;;1.02;;
66663;SDS011;59683;51.428;-1.994;2023-06-04T11:24:30;3.75;;;0.90;;
66663;SDS011;59683;51.428;-1.994;2023-06-04T11:26:58;4.35;;;0.90;;
66663;SDS011;59683;51.428;-1.994;2023-06-04T11:29:24;3.33;;;1.10;;
66663;SDS011;59683;51.428;-1.994;2023-06-04T11:31:50;4.45;;;1.20;;
66663;SDS011;59683;51.428;-1.994;2023-06-04T11:34:29;5.20;;;1.20;;
66663;SDS011;59683;51.428;-1.994;2023-06-04T11:37:06;2.63;;;0.80;;
66663;SDS011;59683;51.428;-1.994;2023-06-04T11:39:36;4.55;;;1.05;;
66663;SDS011;59683;51.428;-1.994;2023-06-04T11:42:07;4.60;;;0.80;;
66663;SDS011;59683;51.428;-1.994;2023-06-04T11:44:32;3.33;;;0.70;;
66663;SDS011;59683;51.428;-1.994;2023-06-04T11:46:58;5.45;;;1.10;;
66663;SDS011;59683;51.428;-1.994;2023-06-04T11:49:24;3.72;;;0.80;;
66663;SDS011;59683;51.428;-1.994;2023-06-04T11:51:51;3.88;;;0.63;;
66663;SDS011;59683;51.428;-1.994;2023-06-04T11:54:18;6.60;;;1.10;;
66663;SDS011;59683;51.428;-1.994;2023-06-04T11:56:45;3.70;;;0.90;;
66663;SDS011;59683;51.428;-1.994;2023-06-04T11:59:13;2.88;;;0.60;;
66663;SDS011;59683;51.428;-1.994;2023-06-04T12:01:40;2.47;;;0.70;;
66663;SDS011;59683;51.428;-1.994;2023-06-04T12:04:18;3.03;;;0.82;;
66663;SDS011;59683;51.428;-1.994;2023-06-04T12:06:53;4.32;;;0.98;;
66663;SDS011;59683;51.428;-1.994;2023-06-04T12:09:22;3.88;;;0.90;;
66663;SDS011;59683;51.428;-1.994;2023-06-04T12:12:03;3.40;;;0.85;;
66663;SDS011;59683;51.428;-1.994;2023-06-04T12:14:30;2.35;;;0.70;;
66663;SDS011;59683;51.428;-1.994;2023-06-04T12:16:57;2.72;;;0.80;;
66663;SDS011;59683;51.428;-1.994;2023-06-04T12:19:24;2.95;;;0.63;;
66663;SDS011;59683;51.428;-1.994;2023-06-04T12:22:04;1.70;;;0.60;;
66663;SDS011;59683;51.428;-1.994;2023-06-04T12:24:33;3.00;;;0.80;;
66663;SDS011;59683;51.428;-1.994;2023-06-04T12:27:10;5.72;;;0.82;;
66663;SDS011;59683;51.428;-1.994;2023-06-04T12:29:36;4.32;;;1.00;;
66663;SDS011;59683;51.428;-1.994;2023-06-04T12:32:06;4.55;;;1.02;;
66663;SDS011;59683;51.428;-1.994;2023-06-04T12:34:38;1.77;;;0.70;;
66663;SDS011;59683;51.428;-1.994;2023-06-04T12:37:05;3.58;;;1.00;;
66663;SDS011;59683;51.428;-1.994;2023-06-04T12:39:34;2.45;;;0.70;;
66663;SDS011;59683;51.428;-1.994;2023-06-04T12:42:02;4.15;;;0.85;;
66663;SDS011;59683;51.428;-1.994;2023-06-04T12:44:27;4.25;;;0.80;;
66663;SDS011;59683;51.428;-1.994;2023-06-04T12:46:53;3.88;;;1.08;;
66663;SDS011;59683;51.428;-1.994;2023-06-04T12:49:19;2.63;;;0.98;;
66663;SDS011;59683;51.428;-1.994;2023-06-04T12:51:44;2.35;;;0.70;;
66663;SDS011;59683;51.428;-1.994;2023-06-04T12:54:09;2.38;;;0.70;;
66663;SDS011;59683;51.428;-1.994;2023-06-04T12:56:35;2.25;;;0.60;;
66663;SDS011;59683;51.428;-1.994;2023-06-04T12:59:01;2.85;;;0.98;;
66663;SDS011;59683;51.428;-1.994;2023-06-04T13:01:27;6.25;;;1.05;;
66663;SDS011;59683;51.428;-1.994;2023-06-04T13:03:52;2.25;;;0.50;;
66663;SDS011;59683;51.428;-1.994;2023-06-04T13:06:18;2.70;;;0.60;;
66663;SDS011;59683;51.428;-1.994;2023-06-04T13:08:44;2.65;;;1.10;;
66663;SDS011;59683;51.428;-1.994;2023-06-04T13:11:09;4.28;;;1.20;;
66663;SDS011;59683;51.428;-1.994;2023-06-04T13:13:35;3.83;;;1.00;;
66663;SDS011;59683;51.428;-1.994;2023-06-04T13:16:02;3.92;;;0.65;;
66663;SDS011;59683;51.428;-1.994;2023-06-04T13:18:27;4.55;;;0.63;;
66663;SDS011;59683;51.428;-1.994;2023-06-04T13:20:53;4.50;;;1.13;;
66663;SDS011;59683;51.428;-1.994;2023-06-04T13:23:18;3.25;;;1.00;;
66663;SDS011;59683;51.428;-1.994;2023-06-04T13:25:44;4.03;;;0.95;;
66663;SDS011;59683;51.428;-1.994;2023-06-04T13:28:09;3.22;;;1.02;;
66663;SDS011;59683;51.428;-1.994;2023-06-04T13:30:35;2.90;;;0.75;;
66663;SDS011;59683;51.428;-1.994;2023-06-04T13:33:07;3.92;;;1.10;;
66663;SDS011;59683;51.428;-1.994;2023-06-04T13:35:32;5.70;;;1.02;;
66663;SDS011;59683;51.428;-1.994;2023-06-04T13:37:58;3.10;;;0.85;;
66663;SDS011;59683;51.428;-1.994;2023-06-04T13:40:23;5.15;;;1.23;;
66663;SDS011;59683;51.428;-1.994;2023-06-04T13:42:49;5.28;;;1.73;;
66663;SDS011;59683;51.428;-1.994;2023-06-04T13:45:15;3.30;;;0.60;;
66663;SDS011;59683;51.428;-1.994;2023-06-04T13:47:42;4.32;;;0.90;;
66663;SDS011;59683;51.428;-1.994;2023-06-04T13:50:07;4.07;;;0.93;;
66663;SDS011;59683;51.428;-1.994;2023-06-04T13:52:33;3.33;;;0.90;;
66663;SDS011;59683;51.428;-1.994;2023-06-04T13:54:59;2.53;;;0.70;;
66663;SDS011;59683;51.428;-1.994;2023-06-04T13:57:25;3.75;;;0.75;;
66663;SDS011;59683;51.428;-1.994;2023-06-04T13:59:50;3.80;;;1.05;;
66663;SDS011;59683;51.428;-1.994;2023-06-04T14:02:16;2.72;;;0.73;;
66663;SDS011;59683;51.428;-1.994;2023-06-04T14:04:42;3.72;;;0.70;;
66663;SDS011;59683;51.428;-1.994;2023-06-04T14:07:07;4.88;;;1.13;;
66663;SDS011;59683;51.428;-1.994;2023-06-04T14:09:32;2.53;;;0.80;;
66663;SDS011;59683;51.428;-1.994;2023-06-04T14:11:58;2.25;;;0.60;;
66663;SDS011;59683;51.428;-1.994;2023-06-04T14:14:24;3.00;;;1.10;;
66663;SDS011;59683;51.428;-1.994;2023-06-04T14:16:50;8.18;;;1.10;;
66663;SDS011;59683;51.428;-1.994;2023-06-04T14:19:15;2.80;;;0.70;;
66663;SDS011;59683;51.428;-1.994;2023-06-04T14:21:44;3.25;;;1.08;;
66663;SDS011;59683;51.428;-1.994;2023-06-04T14:24:10;4.35;;;0.95;;
66663;SDS011;59683;51.428;-1.994;2023-06-04T14:26:36;1.98;;;0.70;;
66663;SDS011;59683;51.428;-1.994;2023-06-04T14:29:01;3.33;;;0.70;;
66663;SDS011;59683;51.428;-1.994;2023-06-04T14:31:27;2.63;;;0.80;;
66663;SDS011;59683;51.428;-1.994;2023-06-04T14:33:52;4.97;;;1.20;;
66663;SDS011;59683;51.428;-1.994;2023-06-04T14:36:18;3.20;;;0.98;;
66663;SDS011;59683;51.428;-1.994;2023-06-04T14:38:44;3.38;;;0.73;;
66663;SDS011;59683;51.428;-1.994;2023-06-04T14:41:09;3.60;;;1.10;;
66663;SDS011;59683;51.428;-1.994;2023-06-04T14:43:35;2.70;;;0.70;;
66663;SDS011;59683;51.428;-1.994;2023-06-04T14:46:01;2.38;;;0.90;;
66663;SDS011;59683;51.428;-1.994;2023-06-04T14:48:26;3.35;;;0.90;;
66663;SDS011;59683;51.428;-1.994;2023-06-04T14:50:52;3.03;;;0.80;;
66663;SDS011;59683;51.428;-1.994;2023-06-04T14:53:19;4.90;;;1.73;;
66663;SDS011;59683;51.428;-1.994;2023-06-04T14:55:45;2.35;;;0.63;;
66663;SDS011;59683;51.428;-1.994;2023-06-04T14:58:11;3.88;;;1.30;;
66663;SDS011;59683;51.428;-1.994;2023-06-04T15:00:37;2.78;;;1.20;;
66663;SDS011;59683;51.428;-1.994;2023-06-04T15:03:02;4.35;;;0.88;;
66663;SDS011;59683;51.428;-1.994;2023-06-04T15:05:28;6.07;;;1.15;;
66663;SDS011;59683;51.428;-1.994;2023-06-04T15:07:53;4.05;;;0.85;;
66663;SDS011;59683;51.428;-1.994;2023-06-04T15:10:18;4.88;;;1.08;;
66663;SDS011;59683;51.428;-1.994;2023-06-04T15:12:44;1.75;;;0.70;;
66663;SDS011;59683;51.428;-1.994;2023-06-04T15:15:10;3.30;;;0.75;;
66663;SDS011;59683;51.428;-1.994;2023-06-04T15:17:35;3.80;;;1.00;;
66663;SDS011;59683;51.428;-1.994;2023-06-04T15:20:02;2.88;;;0.98;;
66663;SDS011;59683;51.428;-1.994;2023-06-04T15:22:28;3.72;;;1.10;;
66663;SDS011;59683;51.428;-1.994;2023-06-04T15:24:53;3.80;;;0.85;;
66663;SDS011;59683;51.428;-1.994;2023-06-04T15:27:19;3.92;;;1.30;;
66663;SDS011;59683;51.428;-1.994;2023-06-04T15:29:44;3.10;;;1.05;;
66663;SDS011;59683;51.428;-1.994;2023-06-04T15:32:10;2.95;;;0.80;;
66663;SDS011;59683;51.428;-1.994;2023-06-04T15:34:36;6.20;;;1.08;;
66663;SDS011;59683;51.428;-1.994;2023-06-04T15:37:01;4.22;;;0.90;;
66663;SDS011;59683;51.428;-1.994;2023-06-04T15:39:27;2.63;;;1.00;;
66663;SDS011;59683;51.428;-1.994;2023-06-04T15:41:53;2.97;;;0.82;;
66663;SDS011;59683;51.428;-1.994;2023-06-04T15:44:18;4.18;;;1.20;;
66663;SDS011;59683;51.428;-1.994;2023-06-04T15:46:43;2.45;;;1.15;;
66663;SDS011;59683;51.428;-1.994;2023-06-04T15:49:09;3.03;;;0.88;;
66663;SDS011;59683;51.428;-1.994;2023-06-04T15:51:35;3.97;;;1.10;;
66663;SDS011;59683;51.428;-1.994;2023-06-04T15:54:01;3.20;;;0.93;;
66663;SDS011;59683;51.428;-1.994;2023-06-04T15:56:28;5.25;;;0.93;;
66663;SDS011;59683;51.428;-1.994;2023-06-04T15:58:54;2.00;;;0.77;;
66663;SDS011;59683;51.428;-1.994;2023-06-04T16:01:19;2.35;;;0.85;;
66663;SDS011;59683;51.428;-1.994;2023-06-04T16:03:45;3.72;;;1.00;;
66663;SDS011;59683;51.428;-1.994;2023-06-04T16:06:11;3.05;;;1.10;;
66663;SDS011;59683;51.428;-1.994;2023-06-04T16:08:36;3.38;;;1.00;;
66663;SDS011;59683;51.428;-1.994;2023-06-04T16:11:02;2.88;;;0.95;;
66663;SDS011;59683;51.428;-1.994;2023-06-04T16:13:28;2.50;;;0.90;;
66663;SDS011;59683;51.428;-1.994;2023-06-04T16:15:54;2.88;;;1.10;;
66663;SDS011;59683;51.428;-1.994;2023-06-04T16:18:20;3.20;;;1.10;;
66663;SDS011;59683;51.428;-1.994;2023-06-04T16:20:45;2.35;;;0.88;;
66663;SDS011;59683;51.428;-1.994;2023-06-04T16:23:11;3.15;;;1.13;;
66663;SDS011;59683;51.428;-1.994;2023-06-04T16:25:36;2.58;;;0.90;;
66663;SDS011;59683;51.428;-1.994;2023-06-04T16:28:02;2.90;;;0.90;;
66663;SDS011;59683;51.428;-1.994;2023-06-04T16:30:28;2.50;;;0.75;;
66663;SDS011;59683;51.428;-1.994;2023-06-04T16:32:53;3.88;;;0.80;;
66663;SDS011;59683;51.428;-1.994;2023-06-04T16:35:19;4.32;;;1.00;;
66663;SDS011;59683;51.428;-1.994;2023-06-04T16:37:45;4.63;;;0.95;;
66663;SDS011;59683;51.428;-1.994;2023-06-04T16:40:10;1.73;;;0.70;;
66663;SDS011;59683;51.428;-1.994;2023-06-04T16:42:36;1.98;;;0.80;;
66663;SDS011;59683;51.428;-1.994;2023-06-04T16:45:02;2.60;;;0.90;;
66663;SDS011;59683;51.428;-1.994;2023-06-04T16:47:28;2.38;;;0.65;;
66663;SDS011;59683;51.428;-1.994;2023-06-04T16:49:54;3.15;;;0.95;;
66663;SDS011;59683;51.428;-1.994;2023-06-04T16:52:20;4.32;;;0.93;;
66663;SDS011;59683;51.428;-1.994;2023-06-04T16:54:45;2.05;;;0.77;;
66663;SDS011;59683;51.428;-1.994;2023-06-04T16:57:11;2.88;;;0.93;;
66663;SDS011;59683;51.428;-1.994;2023-06-04T16:59:37;2.15;;;0.80;;
66663;SDS011;59683;51.428;-1.994;2023-06-04T17:02:05;2.75;;;0.90;;
66663;SDS011;59683;51.428;-1.994;2023-06-04T17:04:31;2.88;;;0.98;;
66663;SDS011;59683;51.428;-1.994;2023-06-04T17:06:56;3.55;;;1.00;;
66663;SDS011;59683;51.428;-1.994;2023-06-04T17:09:22;3.42;;;1.35;;
66663;SDS011;59683;51.428;-1.994;2023-06-04T17:11:47;6.00;;;1.63;;
66663;SDS011;59683;51.428;-1.994;2023-06-04T17:14:13;3.58;;;1.30;;
66663;SDS011;59683;51.428;-1.994;2023-06-04T17:16:38;3.13;;;1.10;;
66663;SDS011;59683;51.428;-1.994;2023-06-04T17:19:04;4.80;;;1.10;;
66663;SDS011;59683;51.428;-1.994;2023-06-04T17:21:29;4.07;;;1.10;;
66663;SDS011;59683;51.428;-1.994;2023-06-04T17:23:55;3.57;;;1.27;;
66663;SDS011;59683;51.428;-1.994;2023-06-04T17:26:22;4.73;;;1.00;;
66663;SDS011;59683;51.428;-1.994;2023-06-04T17:28:48;4.57;;;1.10;;
66663;SDS011;59683;51.428;-1.994;2023-06-04T17:31:14;4.40;;;1.57;;
66663;SDS011;59683;51.428;-1.994;2023-06-04T17:33:42;3.33;;;1.30;;
66663;SDS011;59683;51.428;-1.994;2023-06-04T17:36:08;4.80;;;1.47;;
66663;SDS011;59683;51.428;-1.994;2023-06-04T17:38:34;4.20;;;1.33;;
66663;SDS011;59683;51.428;-1.994;2023-06-04T17:40:59;5.97;;;1.33;;
66663;SDS011;59683;51.428;-1.994;2023-06-04T17:43:25;6.43;;;1.33;;
66663;SDS011;59683;51.428;-1.994;2023-06-04T17:45:52;4.00;;;1.30;;
66663;SDS011;59683;51.428;-1.994;2023-06-04T17:48:18;5.47;;;1.20;;
66663;SDS011;59683;51.428;-1.994;2023-06-04T17:50:43;4.50;;;1.17;;
66663;SDS011;59683;51.428;-1.994;2023-06-04T17:53:09;5.50;;;1.73;;
66663;SDS011;59683;51.428;-1.994;2023-06-04T17:55:35;3.97;;;1.37;;
66663;SDS011;59683;51.428;-1.994;2023-06-04T17:58:00;3.53;;;1.10;;
66663;SDS011;59683;51.428;-1.994;2023-06-04T18:00:26;6.13;;;1.20;;
66663;SDS011;59683;51.428;-1.994;2023-06-04T18:02:51;6.17;;;1.23;;
66663;SDS011;59683;51.428;-1.994;2023-06-04T18:05:17;3.67;;;1.33;;
66663;SDS011;59683;51.428;-1.994;2023-06-04T18:07:43;3.43;;;1.20;;
66663;SDS011;59683;51.428;-1.994;2023-06-04T18:10:10;3.77;;;1.10;;
66663;SDS011;59683;51.428;-1.994;2023-06-04T18:12:36;3.73;;;1.30;;
66663;SDS011;59683;51.428;-1.994;2023-06-04T18:15:02;2.77;;;1.40;;
66663;SDS011;59683;51.428;-1.994;2023-06-04T18:17:29;3.67;;;1.50;;
66663;SDS011;59683;51.428;-1.994;2023-06-04T18:19:55;2.40;;;0.93;;
66663;SDS011;59683;51.428;-1.994;2023-06-04T18:22:20;4.67;;;1.87;;
66663;SDS011;59683;51.428;-1.994;2023-06-04T18:24:45;3.47;;;1.40;;
66663;SDS011;59683;51.428;-1.994;2023-06-04T18:27:11;6.37;;;1.90;;
66663;SDS011;59683;51.428;-1.994;2023-06-04T18:29:36;6.03;;;1.53;;
66663;SDS011;59683;51.428;-1.994;2023-06-04T18:32:02;3.00;;;1.40;;
66663;SDS011;59683;51.428;-1.994;2023-06-04T18:34:28;3.57;;;1.50;;
66663;SDS011;59683;51.428;-1.994;2023-06-04T18:36:53;3.10;;;1.53;;
66663;SDS011;59683;51.428;-1.994;2023-06-04T18:39:24;4.43;;;1.33;;
66663;SDS011;59683;51.428;-1.994;2023-06-04T18:44:19;3.70;;;1.30;;
66663;SDS011;59683;51.428;-1.994;2023-06-04T18:46:45;4.23;;;1.23;;
66663;SDS011;59683;51.428;-1.994;2023-06-04T18:49:10;3.73;;;1.33;;
66663;SDS011;59683;51.428;-1.994;2023-06-04T18:51:36;6.07;;;1.40;;
66663;SDS011;59683;51.428;-1.994;2023-06-04T18:54:02;3.57;;;1.20;;
66663;SDS011;59683;51.428;-1.994;2023-06-04T18:56:28;2.97;;;1.33;;
66663;SDS011;59683;51.428;-1.994;2023-06-04T18:58:55;2.90;;;1.33;;
66663;SDS011;59683;51.428;-1.994;2023-06-04T19:01:20;6.07;;;1.80;;
66663;SDS011;59683;51.428;-1.994;2023-06-04T19:03:46;2.83;;;1.20;;
66663;SDS011;59683;51.428;-1.994;2023-06-04T19:06:11;3.77;;;1.40;;
66663;SDS011;59683;51.428;-1.994;2023-06-04T19:08:37;4.43;;;1.27;;
66663;SDS011;59683;51.428;-1.994;2023-06-04T19:11:02;5.70;;;1.30;;
66663;SDS011;59683;51.428;-1.994;2023-06-04T19:13:28;3.37;;;1.73;;
66663;SDS011;59683;51.428;-1.994;2023-06-04T19:15:53;3.03;;;1.47;;
66663;SDS011;59683;51.428;-1.994;2023-06-04T19:18:19;4.70;;;1.60;;
66663;SDS011;59683;51.428;-1.994;2023-06-04T19:20:45;5.50;;;1.53;;
66663;SDS011;59683;51.428;-1.994;2023-06-04T19:23:10;4.27;;;1.80;;
66663;SDS011;59683;51.428;-1.994;2023-06-04T19:25:36;5.53;;;1.60;;
66663;SDS011;59683;51.428;-1.994;2023-06-04T19:28:04;5.27;;;1.60;;
66663;SDS011;59683;51.428;-1.994;2023-06-04T19:30:30;4.60;;;2.10;;
66663;SDS011;59683;51.428;-1.994;2023-06-04T19:32:56;4.53;;;1.43;;
66663;SDS011;59683;51.428;-1.994;2023-06-04T19:35:21;3.70;;;1.70;;
66663;SDS011;59683;51.428;-1.994;2023-06-04T19:37:47;7.20;;;2.40;;
66663;SDS011;59683;51.428;-1.994;2023-06-04T19:40:14;5.27;;;1.80;;
66663;SDS011;59683;51.428;-1.994;2023-06-04T19:42:42;4.00;;;1.30;;
66663;SDS011;59683;51.428;-1.994;2023-06-04T19:45:07;5.27;;;1.83;;
66663;SDS011;59683;51.428;-1.994;2023-06-04T19:47:33;5.90;;;1.63;;
66663;SDS011;59683;51.428;-1.994;2023-06-04T19:49:59;3.40;;;1.57;;
66663;SDS011;59683;51.428;-1.994;2023-06-04T19:52:24;5.27;;;2.00;;
66663;SDS011;59683;51.428;-1.994;2023-06-04T19:54:51;3.93;;;1.53;;
66663;SDS011;59683;51.428;-1.994;2023-06-04T19:57:17;3.50;;;1.57;;
66663;SDS011;59683;51.428;-1.994;2023-06-04T19:59:42;3.93;;;1.60;;
66663;SDS011;59683;51.428;-1.994;2023-06-04T20:02:07;4.93;;;1.70;;
66663;SDS011;59683;51.428;-1.994;2023-06-04T20:04:33;5.83;;;2.10;;
66663;SDS011;59683;51.428;-1.994;2023-06-04T20:07:02;4.57;;;1.73;;
66663;SDS011;59683;51.428;-1.994;2023-06-04T20:09:27;3.50;;;1.50;;
66663;SDS011;59683;51.428;-1.994;2023-06-04T20:11:53;6.67;;;1.70;;
66663;SDS011;59683;51.428;-1.994;2023-06-04T20:14:19;5.00;;;1.77;;
66663;SDS011;59683;51.428;-1.994;2023-06-04T20:16:44;3.70;;;1.80;;
66663;SDS011;59683;51.428;-1.994;2023-06-04T20:19:10;6.20;;;2.40;;
66663;SDS011;59683;51.428;-1.994;2023-06-04T20:21:35;3.03;;;1.60;;
66663;SDS011;59683;51.428;-1.994;2023-06-04T20:24:02;4.13;;;2.10;;
66663;SDS011;59683;51.428;-1.994;2023-06-04T20:26:28;4.00;;;1.50;;
66663;SDS011;59683;51.428;-1.994;2023-06-04T20:28:53;5.67;;;1.90;;